Time;durP1;ratioP1;P1;durP2;ratioP2;P2;SDS_P1;SDS_P2;PMS_P1;PMS_P2;Temp;Humidity;BMP_temperature;BMP_pressure;BME280_temperature;BME280_humidity;BME280_pressure;Samples;Min_cycle;Max_cycle;Signal;HPM_P1;HPM_P2
2022/11/16 00:02:16;;;;;;;69.53;49.88;;;15.30;72.10;;;;;;4958389;28;95126;-57
2022/11/16 00:04:42;;;;;;;70.35;51.00;;;15.30;72.50;;;;;;4942545;28;96708;-55
2022/11/16 00:07:07;;;;;;;69.32;50.35;;;15.20;72.10;;;;;;4949971;28;96414;-55
2022/11/16 00:09:33;;;;;;;69.25;50.40;;;15.30;72.00;;;;;;4945952;28;96139;-55
2022/11/16 00:12:03;;;;;;;69.45;50.92;;;15.30;72.00;;;;;;4947333;28;96133;-55
2022/11/16 00:14:33;;;;;;;70.75;50.90;;;15.20;72.00;;;;;;4942327;28;95792;-54
2022/11/16 00:16:59;;;;;;;69.88;50.38;;;15.20;72.10;;;;;;4946098;28;96269;-56
2022/11/16 00:19:26;;;;;;;69.13;50.38;;;15.20;72.20;;;;;;4943720;28;95104;-56
2022/11/16 00:21:52;;;;;;;70.63;50.60;;;15.20;72.20;;;;;;4952322;28;95625;-54
2022/11/16 00:24:19;;;;;;;69.55;50.65;;;15.20;72.20;;;;;;4943827;28;98544;-53
2022/11/16 00:26:46;;;;;;;69.95;50.47;;;15.20;72.10;;;;;;4951457;28;95392;-56
2022/11/16 00:29:14;;;;;;;69.38;50.63;;;15.20;72.20;;;;;;4942891;28;94785;-53
2022/11/16 00:31:40;;;;;;;70.43;51.00;;;15.20;72.10;;;;;;4949474;28;98102;-55
2022/11/16 00:34:05;;;;;;;69.43;50.28;;;15.20;72.20;;;;;;4946777;28;94601;-55
2022/11/16 00:36:31;;;;;;;70.10;50.58;;;15.20;72.30;;;;;;4952536;28;95444;-49
2022/11/16 00:38:57;;;;;;;69.18;50.20;;;15.20;72.40;;;;;;4942244;28;95685;-52
2022/11/16 00:41:22;;;;;;;70.10;50.97;;;15.20;72.40;;;;;;4953468;28;96485;-56
2022/11/16 00:43:48;;;;;;;69.50;50.65;;;15.20;72.40;;;;;;4947753;28;96948;-53
2022/11/16 00:46:14;;;;;;;71.13;50.50;;;15.20;72.40;;;;;;4946600;28;95177;-56
2022/11/16 00:48:39;;;;;;;71.18;50.78;;;15.20;72.40;;;;;;4941612;28;96347;-54
2022/11/16 00:51:05;;;;;;;69.78;50.40;;;15.10;72.50;;;;;;4957520;28;98302;-57
2022/11/16 00:53:31;;;;;;;69.95;50.28;;;15.10;72.50;;;;;;4948971;28;97726;-52
2022/11/16 00:55:56;;;;;;;70.40;50.55;;;15.10;72.50;;;;;;4955632;28;95064;-51
2022/11/16 00:58:22;;;;;;;69.60;49.92;;;15.10;72.50;;;;;;4947383;28;94438;-54
2022/11/16 01:00:48;;;;;;;69.90;50.63;;;15.10;72.60;;;;;;4952720;28;98037;-55
2022/11/16 01:03:14;;;;;;;70.97;50.85;;;15.10;72.60;;;;;;4951121;28;94963;-54
2022/11/16 01:05:39;;;;;;;69.10;50.35;;;15.10;72.70;;;;;;4948957;28;97537;-54
2022/11/16 01:08:06;;;;;;;69.68;50.70;;;15.10;72.80;;;;;;4951283;28;97485;-54
2022/11/16 01:10:31;;;;;;;69.20;50.42;;;15.10;72.70;;;;;;4950066;28;95403;-53
2022/11/16 01:12:57;;;;;;;69.63;50.88;;;15.10;72.80;;;;;;4946156;28;95560;-53
2022/11/16 01:15:26;;;;;;;69.43;50.53;;;15.10;72.80;;;;;;4952254;28;96134;-52
2022/11/16 01:17:53;;;;;;;68.70;50.40;;;15.10;72.90;;;;;;4958393;28;94883;-56
2022/11/16 01:20:21;;;;;;;69.88;50.53;;;15.10;72.90;;;;;;4951782;28;95784;-53
2022/11/16 01:22:47;;;;;;;69.82;50.95;;;15.00;72.90;;;;;;4955409;28;96057;-52
2022/11/16 01:25:14;;;;;;;69.93;50.78;;;15.00;72.90;;;;;;4943369;28;97035;-54
2022/11/16 01:27:40;;;;;;;69.47;50.53;;;15.00;73.00;;;;;;4951012;28;98523;-54
2022/11/16 01:30:08;;;;;;;70.90;50.75;;;15.00;73.00;;;;;;4939197;28;97251;-55
2022/11/16 01:32:34;;;;;;;69.38;50.45;;;15.00;73.00;;;;;;4954292;28;96903;-56
2022/11/16 01:35:00;;;;;;;69.35;50.72;;;15.00;73.10;;;;;;4939595;28;96372;-55
2022/11/16 01:37:26;;;;;;;69.45;50.17;;;15.00;73.10;;;;;;4953202;28;95368;-55
2022/11/16 01:39:52;;;;;;;70.22;50.83;;;15.00;73.10;;;;;;4951866;28;95324;-57
2022/11/16 01:42:20;;;;;;;69.07;50.65;;;14.90;73.10;;;;;;4950189;28;95368;-54
2022/11/16 01:44:46;;;;;;;69.15;49.90;;;15.00;73.10;;;;;;4954329;28;94789;-56
2022/11/16 01:47:14;;;;;;;68.85;50.08;;;15.00;73.10;;;;;;4944148;28;95751;-55
2022/11/16 01:49:46;;;;;;;70.60;51.45;;;14.90;73.10;;;;;;4939595;28;95864;-54
2022/11/16 01:52:20;;;;;;;69.47;50.60;;;14.90;73.00;;;;;;4954774;28;95370;-54
2022/11/16 01:54:48;;;;;;;68.72;50.45;;;14.90;73.10;;;;;;4947570;28;95717;-55
2022/11/16 01:57:19;;;;;;;70.22;50.53;;;15.00;73.10;;;;;;4954499;28;95553;-54
2022/11/16 01:59:48;;;;;;;68.90;49.83;;;14.90;73.20;;;;;;4944652;28;96818;-55
2022/11/16 02:02:14;;;;;;;69.13;50.78;;;14.90;73.10;;;;;;4944523;28;95249;-57
2022/11/16 02:04:41;;;;;;;68.93;50.13;;;14.90;73.10;;;;;;4945515;28;95140;-57
2022/11/16 02:07:12;;;;;;;69.28;50.40;;;14.90;73.30;;;;;;4945357;28;96958;-53
2022/11/16 02:10:04;;;;;;;68.70;50.45;;;14.90;73.30;;;;;;4944831;28;97964;-52
2022/11/16 02:12:30;;;;;;;;;;;14.90;73.30;;;;;;4948689;28;95228;-54
2022/11/16 02:15:16;;;;;;;68.38;50.40;;;14.90;73.30;;;;;;4950792;28;99808;-54
2022/11/16 02:17:53;;;;;;;69.38;50.67;;;14.90;73.30;;;;;;4949230;28;94796;-56
2022/11/16 02:20:28;;;;;;;68.70;50.22;;;14.90;73.30;;;;;;4950519;28;96173;-55
2022/11/16 02:23:12;;;;;;;69.45;50.45;;;14.80;73.30;;;;;;4950408;28;95123;-54
2022/11/16 02:25:46;;;;;;;68.65;50.05;;;14.90;73.40;;;;;;4943594;28;94909;-54
2022/11/16 02:28:19;;;;;;;69.38;50.35;;;14.90;73.40;;;;;;4951967;28;94923;-56
2022/11/16 02:30:47;;;;;;;70.00;50.33;;;14.80;73.40;;;;;;4943826;28;95028;-57
2022/11/16 02:33:18;;;;;;;68.82;50.40;;;14.80;73.40;;;;;;4946789;28;96649;-55
2022/11/16 02:35:51;;;;;;;69.15;50.60;;;14.80;73.40;;;;;;4946860;28;95811;-55
2022/11/16 02:38:22;;;;;;;68.10;50.17;;;14.80;73.50;;;;;;4952825;28;95626;-57
2022/11/16 02:40:51;;;;;;;70.50;50.03;;;14.80;73.50;;;;;;4954023;28;95865;-55
2022/11/16 02:43:22;;;;;;;70.43;50.47;;;14.80;73.50;;;;;;4944173;28;100653;-55
2022/11/16 02:45:50;;;;;;;70.45;50.25;;;14.80;73.50;;;;;;4948731;28;96126;-53
2022/11/16 02:48:24;;;;;;;70.68;50.45;;;14.80;73.50;;;;;;4956937;28;95385;-55
2022/11/16 02:50:52;;;;;;;68.97;50.08;;;14.80;73.50;;;;;;4941912;28;94619;-51
2022/11/16 02:53:20;;;;;;;68.85;50.10;;;14.80;73.60;;;;;;4952365;28;95859;-54
2022/11/16 02:55:46;;;;;;;68.57;50.22;;;14.80;73.70;;;;;;4954024;28;94647;-55
2022/11/16 02:58:16;;;;;;;69.20;50.33;;;14.70;73.70;;;;;;4951111;28;94927;-51
2022/11/16 03:00:52;;;;;;;69.00;50.33;;;14.70;73.70;;;;;;4952667;28;97175;-55
2022/11/16 03:03:51;;;;;;;67.82;49.63;;;14.70;73.60;;;;;;4940375;28;95511;-56
2022/11/16 03:06:24;;;;;;;69.13;50.15;;;14.80;73.60;;;;;;4943994;28;96769;-54
2022/11/16 03:09:00;;;;;;;67.88;49.65;;;14.70;73.60;;;;;;4946085;28;95346;-54
2022/11/16 03:14:19;;;;;;;68.13;49.97;;;14.70;73.70;;;;;;4948329;28;97091;-55
2022/11/16 03:16:52;;;;;;;68.18;50.55;;;14.70;73.80;;;;;;4937674;28;94966;-54
2022/11/16 03:19:41;;;;;;;67.20;49.72;;;14.70;73.80;;;;;;4944684;28;99816;-54
2022/11/16 03:22:16;;;;;;;68.05;49.80;;;14.70;73.80;;;;;;4942845;28;95874;-56
2022/11/16 03:24:42;;;;;;;68.55;49.75;;;14.70;73.90;;;;;;4951509;28;95163;-54
2022/11/16 03:27:25;;;;;;;68.07;50.25;;;14.70;73.70;;;;;;4946091;28;94832;-55
2022/11/16 03:30:13;;;;;;;69.85;50.22;;;14.60;73.70;;;;;;4946044;28;94466;-55
2022/11/16 03:32:44;;;;;;;68.28;49.90;;;14.60;73.80;;;;;;4934047;28;97572;-53
2022/11/16 03:35:28;;;;;;;;;;;14.60;73.70;;;;;;4941557;28;95689;-55
2022/11/16 03:37:57;;;;;;;68.05;50.30;;;14.60;73.70;;;;;;4945022;28;96998;-54
2022/11/16 03:40:25;;;;;;;67.97;49.75;;;14.60;73.80;;;;;;4952833;28;95288;-55
2022/11/16 03:42:51;;;;;;;69.10;50.10;;;14.60;73.70;;;;;;4942704;28;95100;-55
2022/11/16 03:45:18;;;;;;;66.82;49.33;;;14.70;73.80;;;;;;4944583;28;95040;-54
2022/11/16 03:47:45;;;;;;;68.90;50.40;;;14.60;73.70;;;;;;4940498;28;99893;-54
2022/11/16 03:50:10;;;;;;;69.43;49.72;;;14.60;73.80;;;;;;4943280;28;95956;-54
2022/11/16 03:52:37;;;;;;;67.57;49.53;;;14.60;73.80;;;;;;4941349;28;95168;-55
2022/11/16 03:55:03;;;;;;;69.05;50.13;;;14.60;73.90;;;;;;4945333;28;95336;-55
2022/11/16 03:57:29;;;;;;;68.40;49.92;;;14.60;73.90;;;;;;4945993;28;94868;-57
2022/11/16 03:59:55;;;;;;;69.38;50.30;;;14.60;73.90;;;;;;4947577;28;94999;-55
2022/11/16 04:02:20;;;;;;;68.20;49.70;;;14.60;73.80;;;;;;4956349;28;97348;-55
2022/11/16 04:24:19;;;;;;;;;;;14.50;73.90;;;;;;4945776;28;97168;-52
2022/11/16 04:29:34;;;;;;;68.35;49.53;;;14.50;74.00;;;;;;4946279;28;102952;-55
2022/11/16 04:40:16;;;;;;;67.68;49.42;;;14.50;73.90;;;;;;4950971;28;94726;-54
2022/11/16 04:42:42;;;;;;;68.03;49.40;;;14.50;74.00;;;;;;4948593;28;94989;-58
2022/11/16 04:47:53;;;;;;;67.38;49.65;;;14.50;73.90;;;;;;4940669;28;94820;-55
2022/11/16 04:50:19;;;;;;;67.40;49.85;;;14.50;74.00;;;;;;4948324;28;95667;-55
2022/11/16 04:52:45;;;;;;;68.80;49.95;;;14.50;73.90;;;;;;4944574;28;95732;-53
2022/11/16 04:55:11;;;;;;;67.80;49.67;;;14.50;73.90;;;;;;4947655;28;96107;-53
2022/11/16 04:57:38;;;;;;;67.65;50.10;;;14.50;74.00;;;;;;4942611;28;96282;-55
2022/11/16 05:00:05;;;;;;;68.15;49.85;;;14.50;74.00;;;;;;4955932;28;95047;-54
2022/11/16 05:02:31;;;;;;;68.07;49.42;;;14.50;74.00;;;;;;4932637;28;97315;-54
2022/11/16 05:04:56;;;;;;;69.05;50.47;;;14.50;74.10;;;;;;4934568;28;95416;-55
2022/11/16 05:07:22;;;;;;;68.40;49.72;;;14.50;74.10;;;;;;4946848;28;96570;-53
2022/11/16 05:09:48;;;;;;;67.10;49.78;;;14.50;74.10;;;;;;4944875;28;95571;-56
2022/11/16 05:12:25;;;;;;;69.00;50.05;;;14.50;74.10;;;;;;4949670;28;95171;-55
2022/11/16 05:14:51;;;;;;;68.20;49.78;;;14.50;74.10;;;;;;4946586;28;95816;-55
2022/11/16 05:17:18;;;;;;;68.88;49.97;;;14.50;74.20;;;;;;4943516;28;95129;-53
2022/11/16 05:22:28;;;;;;;68.90;50.30;;;14.40;74.20;;;;;;4942384;28;96758;-56
2022/11/16 05:24:54;;;;;;;68.82;50.38;;;14.40;74.20;;;;;;4946113;28;96081;-56
2022/11/16 05:27:21;;;;;;;69.18;50.40;;;14.40;74.20;;;;;;4949032;28;94895;-54
2022/11/16 05:29:51;;;;;;;68.68;49.83;;;14.40;74.20;;;;;;4951920;28;96418;-54
2022/11/16 05:32:18;;;;;;;69.85;50.45;;;14.50;74.30;;;;;;4936814;28;96123;-55
2022/11/16 05:34:45;;;;;;;69.45;50.17;;;14.40;74.30;;;;;;4943323;28;96958;-55
2022/11/16 05:37:11;;;;;;;69.55;50.10;;;14.40;75.00;;;;;;4958385;28;94880;-52
2022/11/16 05:39:37;;;;;;;71.90;49.97;;;14.40;74.40;;;;;;4944171;28;95237;-54
2022/11/16 05:42:04;;;;;;;68.30;49.97;;;14.40;74.40;;;;;;4952402;28;95531;-51
2022/11/16 05:44:30;;;;;;;69.07;50.50;;;14.40;74.30;;;;;;4952355;28;96139;-54
2022/11/16 05:46:56;;;;;;;71.18;50.42;;;14.40;74.40;;;;;;4956141;28;95812;-54
2022/11/16 05:49:22;;;;;;;69.55;50.35;;;14.40;75.20;;;;;;4945080;28;95027;-52
2022/11/16 05:51:48;;;;;;;68.82;50.08;;;14.40;74.50;;;;;;4943458;28;98797;-55
2022/11/16 05:54:17;;;;;;;68.70;50.30;;;14.40;74.40;;;;;;4946652;28;98343;-54
2022/11/16 05:56:44;;;;;;;69.90;50.20;;;14.40;74.50;;;;;;4951299;28;96067;-53
2022/11/16 05:59:14;;;;;;;71.05;49.95;;;14.40;74.60;;;;;;4949446;28;95075;-56
2022/11/16 06:01:39;;;;;;;74.32;50.78;;;14.40;74.60;;;;;;4953179;28;94661;-55
2022/11/16 06:04:05;;;;;;;77.30;50.25;;;14.40;74.70;;;;;;4940067;28;95010;-53
2022/11/16 06:06:31;;;;;;;70.82;50.22;;;14.40;74.70;;;;;;4946957;28;95204;-54
2022/11/16 06:08:57;;;;;;;74.40;50.90;;;14.40;75.50;;;;;;4938186;28;96295;-52
2022/11/16 06:11:23;;;;;;;71.35;50.38;;;14.40;74.80;;;;;;4946530;28;95313;-55
2022/11/16 06:13:48;;;;;;;70.95;50.65;;;14.40;75.60;;;;;;4957136;28;95134;-54
2022/11/16 06:16:14;;;;;;;71.88;50.67;;;14.40;75.00;;;;;;4948526;28;95417;-54
2022/11/16 06:18:43;;;;;;;73.68;50.40;;;14.40;74.90;;;;;;4947781;28;94610;-54
2022/11/16 06:21:10;;;;;;;70.80;50.40;;;14.40;75.00;;;;;;4946641;28;97039;-55
2022/11/16 06:23:36;;;;;;;70.38;50.78;;;14.40;75.00;;;;;;4936533;28;94908;-54
2022/11/16 06:26:02;;;;;;;72.05;50.47;;;14.40;74.80;;;;;;4944543;28;94900;-52
2022/11/16 06:28:28;;;;;;;73.43;51.15;;;14.40;75.00;;;;;;4938512;28;95142;-56
2022/11/16 06:30:54;;;;;;;70.65;50.67;;;14.30;74.80;;;;;;4945752;28;95018;-55
2022/11/16 06:33:20;;;;;;;74.65;50.90;;;14.30;74.90;;;;;;4941951;28;96835;-51
2022/11/16 06:35:46;;;;;;;74.13;50.83;;;14.40;74.90;;;;;;4928327;28;96397;-54
2022/11/16 06:38:17;;;;;;;74.10;50.92;;;14.40;74.90;;;;;;4945885;28;95786;-56
2022/11/16 06:40:44;;;;;;;69.85;50.55;;;14.40;74.90;;;;;;4947573;28;94810;-57
2022/11/16 06:43:09;;;;;;;72.75;51.47;;;14.40;74.80;;;;;;4952997;28;95712;-56
2022/11/16 06:45:35;;;;;;;71.13;50.67;;;14.40;74.80;;;;;;4946102;28;95078;-54
2022/11/16 06:48:01;;;;;;;71.10;50.65;;;14.40;74.90;;;;;;4946336;28;95677;-56
2022/11/16 06:50:26;;;;;;;70.47;50.65;;;14.30;74.90;;;;;;4944107;28;94607;-55
2022/11/16 06:52:52;;;;;;;71.00;50.42;;;14.30;74.90;;;;;;4956698;28;101245;-56
2022/11/16 06:55:18;;;;;;;73.70;50.50;;;14.30;74.90;;;;;;4946438;28;95470;-55
2022/11/16 06:57:45;;;;;;;74.57;51.58;;;14.30;74.90;;;;;;4956382;28;96108;-56
2022/11/16 07:00:11;;;;;;;73.63;50.67;;;14.30;75.00;;;;;;4948126;28;94747;-54
2022/11/16 07:02:38;;;;;;;70.55;50.25;;;14.30;74.80;;;;;;4948322;28;96388;-56
2022/11/16 07:05:05;;;;;;;71.82;50.55;;;14.30;74.80;;;;;;4945781;28;95740;-53
2022/11/16 07:07:30;;;;;;;72.70;50.55;;;14.30;74.80;;;;;;4949667;28;95657;-53
2022/11/16 07:09:56;;;;;;;69.10;50.53;;;14.30;74.90;;;;;;4951493;28;95107;-52
2022/11/16 07:12:22;;;;;;;72.90;50.58;;;14.30;74.90;;;;;;4946167;28;94881;-53
2022/11/16 07:14:47;;;;;;;71.80;50.80;;;14.30;74.90;;;;;;4941932;28;96445;-53
2022/11/16 07:17:13;;;;;;;72.80;50.65;;;14.30;75.00;;;;;;4951489;28;95286;-54
2022/11/16 07:19:39;;;;;;;72.63;50.72;;;14.30;75.00;;;;;;4953958;28;96267;-55
2022/11/16 07:22:05;;;;;;;71.18;50.60;;;14.30;74.80;;;;;;4948227;28;95589;-53
2022/11/16 07:24:31;;;;;;;73.38;51.17;;;14.30;74.90;;;;;;4948130;28;94553;-53
2022/11/16 07:26:57;;;;;;;69.93;50.85;;;14.30;74.90;;;;;;4952310;28;98933;-55
2022/11/16 07:29:23;;;;;;;69.53;50.55;;;14.30;74.80;;;;;;4951530;28;98419;-56
2022/11/16 07:31:49;;;;;;;74.85;50.75;;;14.30;74.80;;;;;;4947262;28;95303;-58
2022/11/16 07:34:15;;;;;;;73.22;51.30;;;14.30;74.80;;;;;;4942638;28;94895;-55
2022/11/16 07:36:40;;;;;;;71.00;50.30;;;14.30;74.70;;;;;;4959089;28;94580;-56
2022/11/16 07:39:08;;;;;;;72.28;51.17;;;14.30;74.80;;;;;;4949066;28;94068;-55
2022/11/16 07:41:34;;;;;;;72.90;51.08;;;14.30;74.70;;;;;;4951784;28;95190;-54
2022/11/16 07:44:00;;;;;;;70.80;50.40;;;14.40;74.50;;;;;;4960859;28;94810;-54
2022/11/16 07:46:26;;;;;;;71.65;50.33;;;14.40;74.50;;;;;;4948265;28;96967;-55
2022/11/16 07:48:51;;;;;;;72.13;51.53;;;14.40;74.50;;;;;;4952682;28;95258;-56
2022/11/16 07:51:18;;;;;;;75.03;51.45;;;14.40;74.40;;;;;;4944643;28;95763;-54
2022/11/16 07:53:43;;;;;;;71.25;50.22;;;14.40;74.50;;;;;;4951289;28;94726;-54
2022/11/16 07:56:10;;;;;;;72.43;51.25;;;14.40;74.30;;;;;;4950695;28;94638;-52
2022/11/16 07:58:36;;;;;;;70.70;51.08;;;14.40;74.40;;;;;;4950801;28;95498;-52
2022/11/16 08:01:06;;;;;;;73.80;50.95;;;14.30;74.40;;;;;;4950430;28;96070;-54
2022/11/16 08:03:34;;;;;;;71.90;50.75;;;14.40;74.50;;;;;;4956677;28;94316;-55
2022/11/16 08:06:03;;;;;;;69.45;50.33;;;14.40;74.30;;;;;;4951176;28;95243;-54
2022/11/16 08:08:28;;;;;;;70.30;50.35;;;14.40;74.30;;;;;;4948474;28;94959;-54
2022/11/16 08:11:02;;;;;;;72.25;50.50;;;14.40;74.30;;;;;;4946586;28;100250;-52
2022/11/16 08:13:30;;;;;;;71.25;50.63;;;14.40;74.10;;;;;;4951722;28;95456;-55
2022/11/16 08:16:03;;;;;;;71.75;50.55;;;14.50;74.20;;;;;;4952551;28;94891;-55
2022/11/16 08:18:29;;;;;;;71.07;50.38;;;14.50;74.00;;;;;;4947098;28;95302;-55
2022/11/16 08:20:57;;;;;;;70.32;50.47;;;14.50;74.10;;;;;;4946598;28;95326;-54
2022/11/16 08:23:22;;;;;;;70.68;50.95;;;14.50;74.00;;;;;;4949387;28;95162;-53
2022/11/16 08:25:48;;;;;;;70.78;50.42;;;14.50;73.80;;;;;;4958233;28;97255;-54
2022/11/16 08:28:13;;;;;;;71.57;50.38;;;14.50;73.70;;;;;;4951372;28;94388;-54
2022/11/16 08:30:39;;;;;;;70.50;50.70;;;14.50;73.70;;;;;;4951735;28;98596;-56
2022/11/16 08:33:06;;;;;;;71.72;50.92;;;14.50;73.50;;;;;;4951625;28;95258;-54
2022/11/16 08:35:33;;;;;;;73.25;50.58;;;14.50;73.50;;;;;;4946243;28;95875;-55
2022/11/16 08:38:00;;;;;;;71.50;50.78;;;14.50;73.50;;;;;;4956503;28;95383;-55
2022/11/16 08:40:26;;;;;;;70.63;50.75;;;14.60;73.50;;;;;;4954680;28;95133;-56
2022/11/16 08:42:55;;;;;;;72.55;50.75;;;14.60;73.50;;;;;;4951907;28;96991;-54
2022/11/16 08:45:22;;;;;;;71.38;50.85;;;14.60;73.40;;;;;;4951586;28;95052;-54
2022/11/16 08:47:47;;;;;;;70.55;50.58;;;14.60;73.40;;;;;;4953514;28;97822;-55
2022/11/16 08:50:14;;;;;;;71.20;50.70;;;14.60;73.30;;;;;;4951168;28;95501;-53
2022/11/16 08:52:39;;;;;;;70.07;50.50;;;14.60;73.40;;;;;;4951738;28;99474;-55
2022/11/16 08:55:05;;;;;;;69.75;51.03;;;14.60;73.20;;;;;;4954130;28;94962;-55
2022/11/16 08:57:31;;;;;;;69.47;50.45;;;14.60;73.20;;;;;;4956537;28;95406;-56
2022/11/16 08:59:56;;;;;;;71.63;50.70;;;14.60;73.20;;;;;;4943602;28;95868;-56
2022/11/16 09:02:24;;;;;;;71.28;51.13;;;14.60;73.20;;;;;;4946647;28;95314;-56
2022/11/16 09:04:53;;;;;;;72.43;50.72;;;14.60;73.20;;;;;;4945109;28;95359;-54
2022/11/16 09:07:19;;;;;;;70.43;50.42;;;14.60;73.20;;;;;;4949100;28;97801;-54
2022/11/16 09:09:45;;;;;;;70.88;50.58;;;14.60;73.10;;;;;;4949333;28;95352;-55
2022/11/16 09:12:11;;;;;;;69.72;50.17;;;14.60;73.00;;;;;;4947570;28;95998;-56
2022/11/16 09:14:36;;;;;;;70.10;51.03;;;14.70;73.00;;;;;;4952496;28;94850;-55
2022/11/16 09:17:02;;;;;;;69.47;50.33;;;14.70;73.00;;;;;;4952058;28;94291;-56
2022/11/16 09:19:28;;;;;;;71.00;50.70;;;14.70;72.90;;;;;;4943235;28;95594;-55
2022/11/16 09:21:53;;;;;;;70.10;50.42;;;14.70;72.80;;;;;;4957748;28;95004;-56
2022/11/16 09:24:19;;;;;;;71.85;50.92;;;14.80;72.80;;;;;;4949849;28;96591;-54
2022/11/16 09:26:45;;;;;;;72.22;50.88;;;14.70;72.60;;;;;;4947276;28;96088;-57
2022/11/16 09:29:12;;;;;;;72.85;50.90;;;14.80;72.50;;;;;;4952714;28;95075;-56
2022/11/16 09:31:38;;;;;;;70.78;50.40;;;14.80;72.60;;;;;;4949284;28;95738;-55
2022/11/16 09:34:04;;;;;;;74.45;50.53;;;14.80;72.50;;;;;;4954860;28;95239;-54
2022/11/16 09:36:30;;;;;;;69.93;50.28;;;14.80;72.50;;;;;;4945349;28;95717;-56
2022/11/16 09:38:56;;;;;;;72.55;50.70;;;14.80;72.30;;;;;;4944568;28;95459;-54
2022/11/16 09:41:42;;;;;;;70.57;51.38;;;14.80;72.30;;;;;;4950427;28;96111;-55
2022/11/16 09:44:33;;;;;;;70.35;50.50;;;14.80;72.30;;;;;;4947626;28;96137;-54
2022/11/16 09:47:01;;;;;;;70.85;50.45;;;14.80;72.30;;;;;;4949039;28;95120;-55
2022/11/16 09:49:36;;;;;;;72.32;50.33;;;14.80;72.20;;;;;;4947951;28;97044;-56
2022/11/16 09:52:08;;;;;;;69.78;50.50;;;14.80;72.30;;;;;;4944499;28;97669;-55
2022/11/16 09:54:40;;;;;;;71.53;50.35;;;14.80;72.30;;;;;;4942283;28;96987;-55
2022/11/16 09:57:10;;;;;;;70.25;50.40;;;14.90;72.20;;;;;;4953409;28;95517;-54
2022/11/16 09:59:53;;;;;;;69.82;50.47;;;14.90;72.20;;;;;;4950768;28;95592;-55
2022/11/16 10:02:33;;;;;;;72.70;50.90;;;14.90;72.10;;;;;;4947412;28;97550;-58
2022/11/16 10:05:12;;;;;;;71.47;50.45;;;14.90;72.10;;;;;;4950620;28;95563;-56
2022/11/16 10:07:47;;;;;;;71.43;50.72;;;14.90;72.10;;;;;;4942871;28;94695;-54
2022/11/16 10:10:14;;;;;;;71.55;50.75;;;14.90;72.00;;;;;;4953573;28;95115;-57
2022/11/16 10:12:51;;;;;;;72.25;51.03;;;14.90;72.00;;;;;;4948081;28;95146;-55
2022/11/16 10:15:40;;;;;;;70.80;50.65;;;14.90;71.90;;;;;;4952500;28;96088;-55
2022/11/16 10:18:26;;;;;;;70.07;50.45;;;15.00;71.90;;;;;;4949370;28;95146;-54
2022/11/16 10:21:16;;;;;;;71.07;51.00;;;15.00;71.90;;;;;;4942369;28;95141;-55
2022/11/16 10:24:09;;;;;;;70.30;50.63;;;15.00;71.80;;;;;;4946999;28;96343;-56
2022/11/16 10:26:37;;;;;;;70.63;50.50;;;15.00;71.80;;;;;;4946718;28;95394;-55
2022/11/16 10:29:09;;;;;;;71.28;50.53;;;15.00;71.80;;;;;;4955049;28;96682;-57
2022/11/16 10:32:06;;;;;;;70.57;50.83;;;15.00;71.80;;;;;;4942755;28;96089;-55
2022/11/16 10:35:15;;;;;;;72.28;50.75;;;15.00;71.80;;;;;;4949260;28;96052;-55
2022/11/16 10:37:47;;;;;;;69.60;50.60;;;15.00;71.80;;;;;;4939326;28;94675;-55
2022/11/16 10:40:28;;;;;;;70.38;50.05;;;14.90;71.80;;;;;;4958976;28;94956;-55
2022/11/16 10:43:12;;;;;;;70.65;50.38;;;15.00;71.90;;;;;;4951148;28;97612;-56
2022/11/16 10:45:42;;;;;;;70.60;50.72;;;15.00;71.90;;;;;;4941140;28;97011;-56
2022/11/16 10:48:41;;;;;;;70.90;50.00;;;15.00;71.90;;;;;;4943555;28;96379;-55
2022/11/16 10:51:08;;;;;;;70.85;50.08;;;15.00;72.00;;;;;;4948897;28;94801;-55
2022/11/16 10:53:37;;;;;;;70.93;50.28;;;15.00;71.80;;;;;;4951631;28;95192;-55
2022/11/16 10:56:14;;;;;;;71.50;50.42;;;15.00;71.80;;;;;;4952765;28;95532;-55
2022/11/16 10:58:49;;;;;;;70.95;50.72;;;15.00;71.80;;;;;;4943984;28;94951;-56
2022/11/16 11:01:48;;;;;;;71.53;50.65;;;14.90;71.80;;;;;;4951126;28;94447;-56
2022/11/16 11:04:28;;;;;;;69.53;50.28;;;15.00;71.80;;;;;;4942301;28;98441;-54
2022/11/16 11:07:20;;;;;;;72.28;50.60;;;15.00;71.80;;;;;;4949717;28;96887;-56
2022/11/16 11:09:52;;;;;;;70.07;50.28;;;15.00;71.70;;;;;;4951400;28;96411;-57
2022/11/16 11:12:38;;;;;;;70.30;50.03;;;15.00;71.70;;;;;;4947148;28;94693;-55
2022/11/16 11:15:10;;;;;;;69.88;50.28;;;15.00;71.80;;;;;;4954739;28;95002;-55
2022/11/16 11:17:39;;;;;;;;;;;15.00;71.80;;;;;;4946387;28;95685;-56
2022/11/16 11:20:25;;;;;;;69.78;50.58;;;15.00;71.80;;;;;;4951800;28;95061;-55
2022/11/16 11:22:55;;;;;;;70.13;50.85;;;15.00;71.80;;;;;;4947758;28;97748;-55
2022/11/16 11:25:35;;;;;;;69.90;50.33;;;15.00;71.80;;;;;;4954853;28;94908;-55
2022/11/16 11:28:18;;;;;;;69.63;50.35;;;15.00;71.80;;;;;;4952822;28;95740;-55
2022/11/16 11:30:58;;;;;;;71.40;50.35;;;15.00;71.90;;;;;;4962026;28;94782;-56
2022/11/16 11:33:28;;;;;;;70.15;50.17;;;15.00;71.90;;;;;;4949123;28;96507;-55
2022/11/16 11:36:19;;;;;;;68.60;49.65;;;15.00;71.80;;;;;;4953103;28;97956;-54
2022/11/16 11:39:02;;;;;;;71.53;50.45;;;15.00;71.70;;;;;;4946787;28;95205;-54
2022/11/16 11:41:52;;;;;;;69.03;50.10;;;15.00;71.70;;;;;;4946521;28;95342;-53
2022/11/16 11:44:19;;;;;;;69.68;50.10;;;15.00;71.70;;;;;;4945192;28;98265;-53
2022/11/16 11:47:00;;;;;;;70.15;50.60;;;15.00;71.80;;;;;;4952092;28;95468;-54
2022/11/16 11:49:38;;;;;;;70.63;50.73;;;15.00;71.80;;;;;;4947777;28;96487;-56
2022/11/16 11:52:34;;;;;;;69.97;50.30;;;15.00;71.80;;;;;;4956104;28;95503;-55
2022/11/16 11:55:01;;;;;;;70.35;50.35;;;15.00;71.60;;;;;;4946276;28;96730;-57
2022/11/16 11:57:27;;;;;;;70.15;50.00;;;15.00;71.60;;;;;;4954970;28;95273;-54
2022/11/16 11:59:54;;;;;;;70.90;50.55;;;15.10;71.60;;;;;;4946952;28;95098;-55
2022/11/16 12:02:22;;;;;;;70.82;50.40;;;15.10;71.60;;;;;;4947303;28;97069;-53
2022/11/16 12:05:05;;;;;;;70.57;50.15;;;15.10;71.60;;;;;;4953182;28;95564;-55
2022/11/16 12:08:11;;;;;;;70.85;50.35;;;15.00;71.60;;;;;;4946689;28;95232;-56
2022/11/16 12:11:02;;;;;;;70.25;50.35;;;15.10;71.50;;;;;;4952535;28;96177;-56
2022/11/16 12:13:50;;;;;;;69.70;50.88;;;15.10;71.50;;;;;;4947549;28;97572;-56
2022/11/16 12:16:38;;;;;;;70.47;50.80;;;15.10;71.50;;;;;;4950646;28;96851;-55
2022/11/16 12:19:25;;;;;;;70.32;50.60;;;15.10;71.50;;;;;;4944085;28;96125;-55
2022/11/16 12:22:08;;;;;;;70.68;50.92;;;15.10;71.40;;;;;;4950325;28;95420;-56
2022/11/16 12:24:42;;;;;;;70.78;50.28;;;15.10;71.40;;;;;;4949583;28;95981;-54
2022/11/16 12:27:14;;;;;;;70.75;50.85;;;15.10;71.40;;;;;;4954143;28;95131;-55
2022/11/16 12:29:49;;;;;;;71.13;50.50;;;15.10;71.40;;;;;;4952824;28;96205;-55
2022/11/16 12:32:39;;;;;;;71.05;50.45;;;15.10;71.40;;;;;;4953712;28;96999;-55
2022/11/16 12:35:25;;;;;;;69.93;50.22;;;15.10;71.40;;;;;;4947128;28;96142;-55
2022/11/16 12:38:16;;;;;;;68.93;49.97;;;15.10;71.40;;;;;;4949744;28;95086;-54
2022/11/16 12:41:19;;;;;;;71.25;50.67;;;15.10;71.40;;;;;;4951631;28;95296;-58
2022/11/16 12:43:56;;;;;;;71.25;50.45;;;15.10;71.40;;;;;;4948088;28;95066;-56
2022/11/16 12:47:09;;;;;;;69.93;50.50;;;15.10;71.40;;;;;;4952072;28;95208;-55
2022/11/16 12:49:43;;;;;;;70.43;50.58;;;15.10;71.40;;;;;;4939310;28;94242;-55
2022/11/16 12:52:30;;;;;;;71.18;50.53;;;15.10;71.30;;;;;;4951065;28;95057;-55
2022/11/16 12:55:20;;;;;;;72.18;50.53;;;15.10;71.40;;;;;;4943859;28;98460;-56
2022/11/16 12:58:03;;;;;;;71.90;50.17;;;15.10;72.10;;;;;;4943964;28;97330;-55
2022/11/16 13:00:43;;;;;;;69.60;50.22;;;15.10;71.30;;;;;;4946528;28;95801;-56
2022/11/16 13:03:24;;;;;;;71.38;50.45;;;15.20;71.40;;;;;;4944245;28;94832;-54
2022/11/16 13:05:56;;;;;;;71.18;50.53;;;15.10;71.30;;;;;;4943166;28;96614;-55
2022/11/16 13:08:35;;;;;;;70.25;50.53;;;15.10;71.30;;;;;;4945287;28;95109;-55
2022/11/16 13:11:18;;;;;;;73.82;50.65;;;15.10;71.40;;;;;;4946542;28;95271;-57
2022/11/16 13:13:46;;;;;;;70.47;50.13;;;15.10;71.40;;;;;;4957180;28;95060;-55
2022/11/16 13:16:16;;;;;;;72.43;50.50;;;15.10;71.40;;;;;;4943448;28;94928;-55
2022/11/16 13:18:43;;;;;;;71.88;50.67;;;15.10;71.30;;;;;;4946849;28;95776;-54
2022/11/16 13:21:34;;;;;;;73.72;51.45;;;15.20;71.40;;;;;;4946489;28;94996;-57
2022/11/16 13:24:30;;;;;;;73.80;51.50;;;15.10;71.30;;;;;;4950797;28;96630;-57
2022/11/16 13:27:17;;;;;;;72.82;51.95;;;15.20;71.40;;;;;;4943535;28;95704;-56
2022/11/16 13:29:50;;;;;;;74.50;52.83;;;15.20;71.40;;;;;;4956013;28;95479;-56